ROMMA est une association bénévole à but non lucratif. Votre soutien est indispensable : ADHERER à ROMMA ou FAIRE un DON

Pommerol - (26, Drôme)

Baronnies (780 m)   Longitude: 5° 27' 28.8"   Latitude: 44° 26' 23'' N Station partenaire n°78
 

Détail journalier du     <<     >>

Température Precipitation Humidité Pression Vent Dir Rafale Dir. rafale
Heure (°C) (mm) (%) (hPa) (km/h) (km/h)
01:00 17.107510153O24SO
02:00 16.407410152O18ONO
03:00 16.207110151ONO13OSO
04:00 15.807010151O16O
05:00 12.8082101500O
06:00 13.0080101500O
07:00 13.807710151N16NNE
08:00 13.70791015013ONO
09:00 14.707410151SO13NO
10:00 16.806510155ONO19ONO
11:00 17.905910149ONO26ONO
12:00 18.905610149O34O
13:00 19.4056101413ONO39NO
14:00 20.0053101412ONO37NNO
15:00 20.0056101414ONO40ONO
16:00 19.5057101412NNO37NNO
17:00 18.9058101412ONO40ONO
18:00 19.0056101510NNE37NNE
19:00 19.005510147ONO32OSO
20:00 18.005810156NO29NO
21:00 17.606010164OSO24OSO
22:00 17.106210161ONO19ONO
23:00 15.906610171O15ONO
minuit 14.3073101806O

Graphique du 03-07-2020

 

Serveur OMMA